< < Back
Terminal Aerodrome Forecast


Current Version              Previous Versions:   1  2  3  4  5  6  7  8  9  

Terminal Aerodrome Forecast

582
FTUS42 KFFC 070541
TAFCSG
TAF
KCSG 070541Z 0706/0806 26003KT P6SM FEW200
     FM071600 27006KT P6SM FEW050
     FM080200 26005KT P6SM FEW150=

Latest METAR

665
SAUS70 KWBC 071054
MTRCSG
METAR KCSG 071051Z AUTO 00000KT 8SM CLR 21/20 A3015 RMK AO2 SLP203
T02110200


USA.gov is the U.S. government's official web portal to all federal, state and local government web resources and services.